Time;durP1;ratioP1;P1;durP2;ratioP2;P2;SDS_P1;SDS_P2;PMS_P1;PMS_P2;Temp;Humidity;BMP_temperature;BMP_pressure;BME280_temperature;BME280_humidity;BME280_pressure;Samples;Min_cycle;Max_cycle;Signal;HPM_P1;HPM_P2
2021/04/15 00:02:00;;;;;;;6.18;2.45;;;2.30;99.90;;;;;;5034103;28;20025;-66
2021/04/15 00:04:25;;;;;;;7.60;3.28;;;2.30;99.90;;;;;;5034087;28;20029;-66
2021/04/15 00:06:51;;;;;;;7.07;2.67;;;2.30;99.90;;;;;;5033947;28;20033;-66
2021/04/15 00:09:21;;;;;;;4.43;2.78;;;2.20;99.90;;;;;;5033687;28;20034;-65
2021/04/15 00:11:48;;;;;;;8.00;2.50;;;2.10;99.90;;;;;;5033862;28;20080;-66
2021/04/15 00:14:17;;;;;;;7.20;2.63;;;2.10;99.90;;;;;;5033873;28;20029;-65
2021/04/15 00:16:44;;;;;;;5.32;2.58;;;2.10;99.90;;;;;;5033974;28;20052;-65
2021/04/15 00:19:12;;;;;;;8.57;2.80;;;2.10;99.90;;;;;;5033496;28;20042;-65
2021/04/15 00:21:38;;;;;;;4.15;2.70;;;2.10;99.90;;;;;;5033818;28;20051;-65
2021/04/15 00:24:05;;;;;;;3.75;2.00;;;2.20;99.90;;;;;;5033911;28;20030;-66
2021/04/15 00:26:31;;;;;;;4.40;2.33;;;2.20;99.90;;;;;;5033555;28;20041;-66
2021/04/15 00:28:57;;;;;;;5.85;2.90;;;2.10;99.90;;;;;;5033799;28;20035;-66
2021/04/15 00:31:26;;;;;;;6.97;2.45;;;2.10;99.90;;;;;;5033580;28;20386;-66
2021/04/15 00:33:52;;;;;;;4.93;2.70;;;2.10;99.90;;;;;;5033473;28;20056;-66
2021/04/15 00:36:20;;;;;;;8.57;2.83;;;2.00;99.90;;;;;;5033498;28;20087;-66
2021/04/15 00:38:46;;;;;;;3.85;2.38;;;2.00;99.90;;;;;;5032125;28;20041;-66
2021/04/15 00:41:13;;;;;;;6.10;2.83;;;2.00;99.90;;;;;;5033214;28;20160;-66
2021/04/15 00:43:44;;;;;;;5.45;2.75;;;2.00;99.90;;;;;;5033444;28;20033;-66
2021/04/15 00:46:31;;;;;;;5.50;2.33;;;2.00;99.90;;;;;;5033479;28;20033;-67
2021/04/15 00:48:58;;;;;;;6.72;2.47;;;1.90;99.90;;;;;;5033121;28;20034;-66
2021/04/15 00:51:29;;;;;;;3.83;2.22;;;2.00;99.90;;;;;;5032065;28;20038;-67
2021/04/15 00:54:42;;;;;;;3.97;2.15;;;2.00;99.90;;;;;;5032116;28;20033;-66
2021/04/15 00:57:30;;;;;;;4.47;2.42;;;2.10;99.90;;;;;;5033232;28;20041;-67
2021/04/15 00:59:57;;;;;;;3.67;2.83;;;2.00;99.90;;;;;;5032031;28;20027;-67
2021/04/15 01:02:25;;;;;;;4.97;2.47;;;1.90;99.90;;;;;;5032881;28;20041;-66
2021/04/15 01:04:58;;;;;;;6.10;2.40;;;1.80;99.90;;;;;;5033064;28;20042;-66
2021/04/15 01:07:24;;;;;;;4.05;2.08;;;1.80;99.90;;;;;;5032436;28;20509;-67
2021/04/15 01:09:51;;;;;;;4.68;2.67;;;1.80;99.90;;;;;;5032991;28;20495;-66
2021/04/15 01:12:52;;;;;;;4.63;2.22;;;1.80;99.90;;;;;;5032730;28;20060;-66
2021/04/15 01:15:35;;;;;;;5.07;2.08;;;1.80;99.90;;;;;;5031772;28;20029;-66
2021/04/15 01:18:47;;;;;;;4.68;2.72;;;1.80;99.90;;;;;;5032864;28;20045;-66
2021/04/15 01:21:50;;;;;;;8.13;3.13;;;1.70;99.90;;;;;;5032007;28;20053;-67
2021/04/15 01:24:46;;;;;;;5.15;2.60;;;1.70;99.90;;;;;;5032659;28;20041;-66
2021/04/15 01:27:33;;;;;;;5.68;2.60;;;1.70;99.90;;;;;;5031591;28;20029;-67
2021/04/15 01:30:31;;;;;;;5.75;2.40;;;1.70;99.90;;;;;;5032596;28;20038;-67
2021/04/15 01:33:33;;;;;;;5.15;2.55;;;1.60;99.90;;;;;;5032667;28;20029;-67
2021/04/15 01:36:25;;;;;;;5.90;2.55;;;1.60;99.90;;;;;;5031585;28;20030;-66
2021/04/15 01:39:16;;;;;;;5.22;2.83;;;1.60;99.90;;;;;;5031351;28;20095;-67
2021/04/15 01:41:54;;;;;;;5.97;2.50;;;1.60;99.90;;;;;;5031352;28;20064;-67
2021/04/15 01:44:54;;;;;;;4.55;2.30;;;1.50;99.90;;;;;;5031237;28;20037;-68
2021/04/15 01:47:32;;;;;;;5.10;2.72;;;1.50;99.90;;;;;;5031193;28;20032;-66
2021/04/15 01:50:08;;;;;;;6.70;2.58;;;1.50;99.90;;;;;;5030713;28;20033;-66
2021/04/15 01:52:37;;;;;;;6.18;2.58;;;1.50;99.90;;;;;;5030883;28;20025;-67
2021/04/15 01:55:29;;;;;;;7.85;3.22;;;1.50;99.90;;;;;;5031091;28;20032;-67
2021/04/15 01:58:45;;;;;;;7.05;3.33;;;1.50;99.90;;;;;;5014276;28;20467;-67
2021/04/15 02:01:19;;;;;;;5.00;3.05;;;1.50;99.90;;;;;;4992856;28;20046;-67
2021/04/15 02:03:48;;;;;;;5.35;2.67;;;1.40;99.90;;;;;;5034384;28;20038;-67
2021/04/15 02:06:24;;;;;;;5.38;2.60;;;1.30;99.90;;;;;;5034899;28;20425;-66
2021/04/15 02:08:59;;;;;;;6.63;2.47;;;1.30;99.90;;;;;;5036294;28;20034;-67
2021/04/15 02:11:38;;;;;;;4.93;2.75;;;1.40;99.90;;;;;;5035038;28;20033;-66
2021/04/15 02:14:05;;;;;;;4.15;2.60;;;1.40;99.90;;;;;;5018441;28;20057;-66
2021/04/15 02:16:34;;;;;;;7.00;2.70;;;1.40;99.90;;;;;;5034858;28;20037;-66
2021/04/15 02:19:16;;;;;;;5.35;2.88;;;1.30;99.90;;;;;;5034716;28;20061;-66
2021/04/15 02:22:24;;;;;;;6.75;3.08;;;1.40;99.90;;;;;;5034761;28;20075;-66
2021/04/15 02:25:06;;;;;;;6.40;3.08;;;1.30;99.90;;;;;;5034360;28;20045;-66
2021/04/15 02:27:49;;;;;;;5.78;2.47;;;1.30;99.90;;;;;;5034778;28;20538;-67
2021/04/15 02:30:27;;;;;;;6.63;2.97;;;1.30;99.90;;;;;;5034747;28;20036;-66
2021/04/15 02:33:07;;;;;;;4.90;2.38;;;1.30;99.90;;;;;;5034828;28;20036;-65
2021/04/15 02:35:44;;;;;;;4.68;2.65;;;1.20;99.90;;;;;;5035755;28;20033;-65
2021/04/15 02:38:12;;;;;;;6.55;2.97;;;1.20;99.90;;;;;;5034731;28;20050;-67
2021/04/15 02:40:48;;;;;;;6.60;3.17;;;1.20;99.90;;;;;;5034296;28;20580;-66
2021/04/15 02:43:26;;;;;;;4.68;2.63;;;1.10;99.90;;;;;;5034609;28;20044;-67
2021/04/15 02:45:56;;;;;;;9.45;3.28;;;1.20;99.90;;;;;;5034618;28;20088;-66
2021/04/15 02:48:33;;;;;;;5.38;3.33;;;1.20;99.90;;;;;;5034348;28;20048;-66
2021/04/15 02:51:06;;;;;;;6.05;3.30;;;1.20;99.90;;;;;;5034228;28;20436;-67
2021/04/15 02:53:52;;;;;;;5.55;3.03;;;1.20;99.90;;;;;;5034338;28;20120;-67
2021/04/15 02:56:25;;;;;;;5.25;2.90;;;1.10;99.90;;;;;;5034324;28;20040;-66
2021/04/15 02:59:06;;;;;;;6.68;3.33;;;1.00;99.90;;;;;;5035211;28;20080;-66
2021/04/15 03:01:42;;;;;;;4.47;2.85;;;1.00;99.90;;;;;;5035283;28;20047;-66
2021/04/15 03:04:17;;;;;;;5.47;3.00;;;1.00;99.90;;;;;;5034020;28;20029;-65
2021/04/15 03:06:46;;;;;;;5.80;3.33;;;0.90;99.90;;;;;;5033609;28;20461;-65
2021/04/15 03:09:14;;;;;;;7.28;3.28;;;0.90;99.90;;;;;;5034003;28;20124;-66
2021/04/15 03:11:52;;;;;;;7.40;3.33;;;0.90;99.90;;;;;;5035073;28;20025;-67
2021/04/15 03:14:24;;;;;;;8.05;3.20;;;0.90;99.90;;;;;;5034056;28;20386;-68
2021/04/15 03:16:56;;;;;;;6.63;3.72;;;0.80;99.90;;;;;;5035201;28;20095;-66
2021/04/15 03:19:35;;;;;;;5.93;3.67;;;0.80;99.90;;;;;;5033442;28;20049;-67
2021/04/15 03:22:56;;;;;;;6.93;3.88;;;0.80;99.90;;;;;;5033857;28;20219;-67
2021/04/15 03:25:22;;;;;;;8.40;4.13;;;0.80;99.90;;;;;;5009469;28;20048;-67
2021/04/15 03:28:20;;;;;;;9.32;3.08;;;0.60;99.90;;;;;;5034856;28;20038;-66
2021/04/15 03:31:09;;;;;;;5.43;3.28;;;0.70;99.90;;;;;;5033772;28;20038;-67
2021/04/15 03:33:49;;;;;;;8.43;3.92;;;0.60;99.90;;;;;;5033669;28;20064;-67
2021/04/15 03:36:24;;;;;;;8.38;4.22;;;0.60;99.90;;;;;;5034740;28;20060;-67
2021/04/15 03:38:57;;;;;;;6.63;3.67;;;0.60;99.90;;;;;;5033550;28;20390;-66
2021/04/15 03:41:47;;;;;;;5.30;3.75;;;0.60;99.90;;;;;;5033391;28;20039;-66
2021/04/15 03:44:22;;;;;;;6.30;3.80;;;0.60;99.90;;;;;;5031411;28;20041;-66
2021/04/15 03:47:18;;;;;;;8.65;4.00;;;0.60;99.90;;;;;;5034469;28;20034;-65
2021/04/15 03:50:02;;;;;;;8.02;3.88;;;0.50;99.90;;;;;;5025811;28;20034;-66
2021/04/15 03:52:52;;;;;;;8.50;3.88;;;0.50;99.90;;;;;;5034353;28;20112;-66
2021/04/15 03:55:30;;;;;;;7.03;4.38;;;0.50;99.90;;;;;;5033124;28;20107;-66
2021/04/15 03:58:38;;;;;;;7.20;4.28;;;0.40;99.90;;;;;;5034447;28;20034;-69
2021/04/15 04:01:20;;;;;;;8.35;4.53;;;0.40;99.90;;;;;;4979866;28;20081;-70
2021/04/15 04:03:56;;;;;;;10.45;4.72;;;0.40;99.90;;;;;;5033051;28;20026;-70
2021/04/15 04:06:24;;;;;;;11.32;4.72;;;0.40;99.90;;;;;;5033030;28;20040;-69
2021/04/15 04:09:03;;;;;;;10.05;4.22;;;0.40;99.90;;;;;;5032986;28;20423;-70
2021/04/15 04:11:35;;;;;;;8.48;4.63;;;0.30;99.90;;;;;;5033994;28;20080;-70
2021/04/15 04:14:07;;;;;;;13.00;4.20;;;0.30;99.90;;;;;;5032767;28;20025;-70
2021/04/15 04:16:43;;;;;;;8.30;4.97;;;0.30;99.90;;;;;;5032660;28;20108;-70
2021/04/15 04:19:39;;;;;;;9.32;4.60;;;0.30;99.90;;;;;;5032367;28;20049;-70
2021/04/15 04:22:39;;;;;;;8.68;5.25;;;0.30;99.90;;;;;;5032714;28;20463;-70
2021/04/15 04:25:25;;;;;;;11.05;4.80;;;0.20;99.90;;;;;;5033706;28;20034;-69
2021/04/15 04:28:12;;;;;;;12.30;5.28;;;0.20;99.90;;;;;;5032822;28;20098;-70
2021/04/15 04:30:48;;;;;;;10.48;4.75;;;0.20;99.90;;;;;;5030509;28;20445;-71
2021/04/15 04:33:17;;;;;;;9.50;4.63;;;0.20;99.90;;;;;;5023225;28;20566;-71
2021/04/15 04:35:48;;;;;;;10.60;4.57;;;0.20;99.90;;;;;;5021797;28;20033;-71
2021/04/15 04:38:20;;;;;;;8.70;5.00;;;0.30;99.90;;;;;;5019829;28;20030;-71
2021/04/15 04:40:53;;;;;;;10.35;5.18;;;0.40;99.90;;;;;;5027223;28;20037;-71
2021/04/15 04:44:02;;;;;;;11.90;6.50;;;0.30;99.90;;;;;;5021255;28;20041;-72
2021/04/15 04:46:30;;;;;;;10.57;5.38;;;0.30;99.90;;;;;;5027304;28;20034;-70
2021/04/15 04:49:04;;;;;;;12.80;6.80;;;0.30;99.90;;;;;;5027756;28;20054;-71
2021/04/15 04:51:58;;;;;;;13.50;6.72;;;0.40;99.90;;;;;;5030988;28;20041;-71
2021/04/15 04:54:25;;;;;;;12.40;6.15;;;0.40;99.90;;;;;;5014021;28;20045;-70
2021/04/15 04:56:59;;;;;;;20.27;6.28;;;0.40;99.90;;;;;;5031769;28;20092;-70
2021/04/15 04:59:33;;;;;;;10.82;6.20;;;0.50;99.90;;;;;;5033167;28;20037;-68
2021/04/15 05:01:59;;;;;;;17.35;7.10;;;0.50;99.90;;;;;;5031662;28;20537;-69
2021/04/15 05:04:31;;;;;;;10.05;5.97;;;0.50;99.90;;;;;;5031740;28;20116;-69
2021/04/15 05:07:03;;;;;;;12.70;6.53;;;0.50;99.90;;;;;;5013395;28;20116;-68
2021/04/15 05:09:40;;;;;;;13.32;6.05;;;0.40;99.90;;;;;;5013081;28;20475;-69
2021/04/15 05:12:18;;;;;;;10.32;6.32;;;0.50;99.90;;;;;;5024987;28;20091;-69
2021/04/15 05:14:44;;;;;;;12.10;6.63;;;0.60;99.90;;;;;;5031368;28;20032;-69
2021/04/15 05:17:34;;;;;;;10.32;5.93;;;0.70;99.90;;;;;;5032713;28;20033;-69
2021/04/15 05:20:09;;;;;;;14.85;6.05;;;0.70;99.90;;;;;;5030996;28;20064;-70
2021/04/15 05:22:46;;;;;;;13.50;6.85;;;0.70;99.90;;;;;;4995865;28;20034;-70
2021/04/15 05:25:43;;;;;;;12.95;6.82;;;0.60;99.90;;;;;;5013018;28;20069;-71
2021/04/15 05:28:13;;;;;;;12.30;7.05;;;0.60;99.90;;;;;;4998934;28;20065;-74
2021/04/15 05:30:50;;;;;;;10.93;6.70;;;0.70;99.90;;;;;;4992272;28;20064;-75
2021/04/15 05:33:23;;;;;;;12.18;6.88;;;0.70;99.90;;;;;;5009574;28;20401;-74
2021/04/15 05:36:09;;;;;;;13.77;7.18;;;0.80;99.90;;;;;;5002902;28;20034;-72
2021/04/15 05:38:48;;;;;;;13.32;6.95;;;0.80;99.90;;;;;;5006540;28;20038;-74
2021/04/15 05:41:30;;;;;;;14.85;6.40;;;0.90;99.90;;;;;;5004817;28;20044;-74
2021/04/15 05:44:06;;;;;;;12.43;7.15;;;0.90;99.90;;;;;;5011169;28;20038;-74
2021/04/15 05:46:43;;;;;;;12.70;6.65;;;1.00;99.90;;;;;;5003996;28;20093;-75
2021/04/15 05:49:21;;;;;;;13.57;7.25;;;1.00;99.90;;;;;;5003008;28;20064;-75
2021/04/15 05:52:06;;;;;;;17.65;7.10;;;1.10;99.90;;;;;;5025082;28;20076;-75
2021/04/15 05:54:35;;;;;;;16.20;6.88;;;1.20;99.90;;;;;;4997192;28;20031;-74
2021/04/15 05:57:11;;;;;;;12.57;6.68;;;1.20;99.90;;;;;;4994330;28;20034;-74
2021/04/15 06:00:08;;;;;;;14.68;7.78;;;1.30;99.90;;;;;;5013810;28;20129;-73
2021/04/15 06:02:42;;;;;;;13.95;7.25;;;1.40;99.90;;;;;;5021339;28;20029;-75
2021/04/15 06:05:25;;;;;;;14.55;6.53;;;1.40;99.90;;;;;;5012591;28;20034;-74
2021/04/15 06:07:54;;;;;;;11.25;6.63;;;1.50;99.90;;;;;;5011984;28;20038;-74
2021/04/15 06:10:27;;;;;;;18.92;7.15;;;1.60;99.90;;;;;;5011250;28;20060;-75
2021/04/15 06:13:02;;;;;;;15.02;7.85;;;1.70;99.90;;;;;;5009853;28;20454;-74
2021/04/15 06:15:32;;;;;;;14.65;7.38;;;1.70;99.90;;;;;;5012281;28;20034;-73
2021/04/15 06:18:37;;;;;;;15.65;7.57;;;1.80;99.90;;;;;;5010995;28;20463;-75
2021/04/15 06:21:29;;;;;;;13.63;6.97;;;1.90;99.90;;;;;;5013865;28;20089;-74
2021/04/15 06:24:14;;;;;;;12.38;6.63;;;2.00;99.90;;;;;;5030597;28;20041;-76
2021/04/15 06:26:52;;;;;;;13.75;6.50;;;2.20;99.90;;;;;;5030774;28;20033;-70
2021/04/15 06:29:42;;;;;;;13.35;7.05;;;2.20;99.90;;;;;;5031902;28;20032;-71
2021/04/15 06:32:18;;;;;;;14.00;7.15;;;2.30;99.90;;;;;;5031973;28;20493;-72
2021/04/15 06:34:46;;;;;;;13.88;6.40;;;2.40;99.90;;;;;;5031781;28;20061;-71
2021/04/15 06:37:45;;;;;;;39.10;17.00;;;2.60;99.90;;;;;;5031458;28;20546;-71
2021/04/15 06:40:52;;;;;;;13.88;8.02;;;2.60;99.90;;;;;;5004925;28;20044;-71
2021/04/15 06:44:09;;;;;;;17.40;9.70;;;2.70;99.90;;;;;;5031719;28;20034;-71
2021/04/15 06:47:13;;;;;;;12.32;7.00;;;2.80;99.90;;;;;;5032068;28;20386;-71
2021/04/15 06:50:23;;;;;;;12.27;6.93;;;2.80;99.90;;;;;;5034969;28;20060;-71
2021/04/15 06:53:19;;;;;;;11.68;7.13;;;2.90;99.90;;;;;;5034989;28;20053;-70
2021/04/15 06:55:56;;;;;;;13.90;5.78;;;2.90;99.90;;;;;;5033873;28;20109;-72
2021/04/15 06:59:10;;;;;;;12.50;6.25;;;3.20;99.90;;;;;;5034162;28;20037;-70
2021/04/15 07:01:55;;;;;;;11.82;6.65;;;3.20;99.90;;;;;;5034306;28;20037;-74
2021/04/15 07:04:45;;;;;;;10.57;7.18;;;3.40;99.90;;;;;;5034191;28;20034;-72
2021/04/15 07:07:24;;;;;;;16.73;6.20;;;3.40;99.90;;;;;;5034183;28;20048;-72
2021/04/15 07:10:15;;;;;;;10.13;6.03;;;3.50;99.90;;;;;;5034541;28;20029;-70
2021/04/15 07:12:55;;;;;;;9.77;6.15;;;3.60;99.90;;;;;;5034420;28;20044;-70
2021/04/15 07:15:43;;;;;;;14.40;5.70;;;3.80;99.90;;;;;;5033990;28;20046;-71
2021/04/15 07:19:03;;;;;;;14.18;6.35;;;3.80;99.90;;;;;;5048442;28;20124;-70
2021/04/15 07:22:06;;;;;;;14.85;5.97;;;4.00;99.90;;;;;;5008277;28;20117;-71
2021/04/15 07:24:54;;;;;;;11.35;5.15;;;4.20;99.90;;;;;;4995407;28;20515;-70
2021/04/15 07:28:17;;;;;;;11.05;6.18;;;4.20;99.90;;;;;;5008165;28;20070;-71
2021/04/15 07:31:18;;;;;;;11.93;5.70;;;4.30;99.90;;;;;;4995173;28;20066;-71
2021/04/15 07:34:06;;;;;;;12.68;5.53;;;4.40;99.90;;;;;;5010301;28;20030;-71
2021/04/15 07:37:29;;;;;;;11.13;6.95;;;4.50;99.90;;;;;;4995271;28;20471;-72
2021/04/15 07:40:13;;;;;;;11.38;5.65;;;4.50;99.90;;;;;;4994066;28;20133;-71
2021/04/15 07:42:59;;;;;;;10.73;6.00;;;4.70;99.90;;;;;;5031717;28;20406;-71
2021/04/15 07:46:01;;;;;;;8.82;5.47;;;4.80;99.90;;;;;;5028860;28;20034;-71
2021/04/15 07:49:04;;;;;;;;;;;5.00;99.90;;;;;;5028738;28;20026;-71
2021/04/15 07:52:25;;;;;;;8.70;5.30;;;5.10;99.90;;;;;;5033296;28;20012;-70
2021/04/15 07:55:30;;;;;;;12.55;5.18;;;5.20;99.90;;;;;;4984171;28;20735;-73
2021/04/15 07:58:08;;;;;;;10.30;5.22;;;5.30;99.90;;;;;;5015742;28;20022;-69
2021/04/15 08:01:17;;;;;;;12.80;5.55;;;5.50;99.90;;;;;;5012614;28;20060;-70
2021/04/15 08:04:17;;;;;;;9.02;5.30;;;5.60;99.90;;;;;;5014120;28;20458;-70
2021/04/15 08:07:32;;;;;;;7.95;5.53;;;5.80;99.90;;;;;;5013671;28;20731;-71
2021/04/15 08:10:29;;;;;;;12.73;5.32;;;5.80;99.90;;;;;;5013072;28;20048;-71
2021/04/15 08:13:13;;;;;;;9.40;5.78;;;5.60;99.90;;;;;;5013793;28;20029;-73
2021/04/15 08:16:03;;;;;;;10.95;5.05;;;5.70;99.90;;;;;;5014122;28;20424;-71
2021/04/15 08:18:57;;;;;;;11.30;4.90;;;6.00;99.90;;;;;;5013847;28;20030;-71
2021/04/15 08:21:50;;;;;;;12.00;4.68;;;6.20;99.90;;;;;;5040444;28;20041;-71
2021/04/15 08:24:44;;;;;;;7.97;5.22;;;6.40;99.90;;;;;;5032743;28;20626;-70
2021/04/15 08:27:31;;;;;;;10.68;4.90;;;6.10;99.90;;;;;;5033624;28;20033;-72
2021/04/15 08:30:57;;;;;;;13.13;5.10;;;6.20;99.90;;;;;;5032264;28;20048;-71
2021/04/15 08:33:44;;;;;;;8.50;4.68;;;6.50;99.90;;;;;;5032518;28;20100;-71
2021/04/15 08:36:18;;;;;;;8.90;4.88;;;6.60;99.90;;;;;;5033454;28;20049;-71
2021/04/15 08:39:14;;;;;;;8.48;4.50;;;6.70;99.90;;;;;;5033566;28;20034;-70
2021/04/15 08:42:21;;;;;;;7.63;3.90;;;6.90;99.90;;;;;;5033318;28;20037;-71
2021/04/15 08:45:21;;;;;;;7.43;4.22;;;7.00;99.90;;;;;;4985284;28;20042;-71
2021/04/15 08:48:12;;;;;;;10.82;4.45;;;7.20;99.90;;;;;;4999446;28;20042;-71
2021/04/15 08:51:06;;;;;;;7.43;4.50;;;7.40;99.90;;;;;;4993747;28;20034;-70
2021/04/15 08:54:19;;;;;;;11.02;5.25;;;7.30;99.90;;;;;;4993864;28;20146;-72
2021/04/15 08:57:31;;;;;;;7.35;4.38;;;7.50;99.90;;;;;;4993436;28;20042;-72
2021/04/15 09:00:22;;;;;;;7.28;3.70;;;7.80;99.90;;;;;;4992593;28;20122;-71
2021/04/15 09:03:07;;;;;;;12.07;4.20;;;7.70;99.80;;;;;;4993406;28;20372;-72
2021/04/15 09:06:17;;;;;;;6.53;3.50;;;8.00;99.90;;;;;;4993495;28;20289;-71
2021/04/15 09:09:31;;;;;;;4.88;3.30;;;8.30;97.30;;;;;;4991903;28;20514;-70
2021/04/15 09:12:17;;;;;;;6.90;3.20;;;8.60;98.20;;;;;;4983776;28;20042;-71
2021/04/15 09:15:42;;;;;;;7.40;3.20;;;9.10;95.70;;;;;;4993563;28;20117;-73
2021/04/15 09:18:17;;;;;;;5.43;2.97;;;9.30;94.40;;;;;;4976388;28;20416;-71
2021/04/15 09:20:57;;;;;;;6.32;2.90;;;9.00;94.30;;;;;;5009424;28;20046;-71
2021/04/15 09:23:35;;;;;;;5.65;2.88;;;9.10;94.30;;;;;;5013093;28;20030;-71
2021/04/15 09:26:45;;;;;;;7.55;3.08;;;9.20;94.40;;;;;;5012664;28;20387;-71
2021/04/15 09:29:24;;;;;;;7.38;2.70;;;9.60;93.80;;;;;;4990430;28;20034;-71
2021/04/15 09:31:55;;;;;;;6.38;2.15;;;10.20;88.80;;;;;;5005740;28;20100;-71
2021/04/15 09:34:39;;;;;;;5.70;2.35;;;9.90;86.60;;;;;;5035240;28;20076;-71
2021/04/15 09:38:01;;;;;;;6.78;2.88;;;10.20;85.60;;;;;;5032323;28;20140;-72
2021/04/15 09:40:52;;;;;;;6.05;2.85;;;10.10;86.00;;;;;;5009228;28;20041;-71
2021/04/15 09:43:44;;;;;;;4.50;2.22;;;10.20;86.30;;;;;;5032374;28;20040;-70
2021/04/15 09:46:48;;;;;;;4.45;3.03;;;10.40;84.90;;;;;;5047469;28;20095;-70
2021/04/15 09:50:01;;;;;;;4.70;2.63;;;10.20;86.20;;;;;;5039765;28;20088;-72
2021/04/15 09:53:17;;;;;;;4.82;2.13;;;10.50;82.70;;;;;;4951750;29;20091;-71
2021/04/15 09:56:22;;;;;;;3.15;1.92;;;10.40;77.00;;;;;;4991328;28;20120;-71
2021/04/15 09:59:02;;;;;;;5.43;2.35;;;9.80;79.70;;;;;;5012440;28;20037;-71
2021/04/15 10:01:44;;;;;;;4.30;2.85;;;9.70;81.70;;;;;;5012514;28;20065;-71
2021/04/15 10:04:47;;;;;;;6.20;2.78;;;9.90;83.20;;;;;;4995218;28;20053;-72
2021/04/15 10:07:20;;;;;;;6.75;3.08;;;10.70;82.00;;;;;;5011281;28;20033;-71
2021/04/15 10:09:55;;;;;;;5.30;2.45;;;10.40;82.60;;;;;;5015164;28;20383;-71
2021/04/15 10:13:07;;;;;;;6.95;2.33;;;10.50;82.30;;;;;;5032150;28;20037;-71
2021/04/15 10:15:42;;;;;;;5.85;2.75;;;10.60;78.00;;;;;;5032073;28;20392;-71
2021/04/15 10:18:51;;;;;;;5.57;2.30;;;9.70;80.00;;;;;;5031597;28;20468;-68
2021/04/15 10:21:55;;;;;;;4.47;2.10;;;10.30;83.00;;;;;;5005670;28;20042;-69
2021/04/15 10:24:32;;;;;;;5.90;2.05;;;10.70;79.00;;;;;;5015062;28;20034;-71
2021/04/15 10:26:57;;;;;;;2.92;1.90;;;10.70;78.70;;;;;;5014469;28;20062;-69
2021/04/15 10:29:37;;;;;;;6.95;2.10;;;11.20;74.40;;;;;;5016045;28;20065;-70
2021/04/15 10:32:33;;;;;;;5.50;2.30;;;11.20;72.20;;;;;;5014689;28;20037;-70
2021/04/15 10:35:28;;;;;;;4.50;2.05;;;11.40;71.70;;;;;;5015534;28;20080;-70
2021/04/15 10:38:33;;;;;;;3.10;1.58;;;11.40;74.00;;;;;;5015754;28;20088;-71
2021/04/15 10:41:10;;;;;;;2.95;1.30;;;11.60;69.00;;;;;;5015592;28;20034;-71
2021/04/15 10:44:11;;;;;;;4.13;1.52;;;11.50;69.40;;;;;;5019344;28;20072;-71
2021/04/15 10:47:10;;;;;;;6.57;1.50;;;11.90;68.50;;;;;;5035631;28;20124;-70
2021/04/15 10:50:08;;;;;;;4.15;1.80;;;11.70;66.80;;;;;;5034043;28;20065;-70
2021/04/15 10:52:46;;;;;;;4.55;1.88;;;11.70;67.80;;;;;;5030222;28;20580;-70
2021/04/15 10:55:37;;;;;;;3.70;1.88;;;11.60;68.80;;;;;;5034431;28;20040;-72
2021/04/15 10:58:34;;;;;;;3.17;2.00;;;12.00;66.60;;;;;;5032909;28;20556;-71
2021/04/15 11:01:32;;;;;;;3.05;2.00;;;12.40;66.70;;;;;;5026694;28;20050;-69
2021/04/15 11:04:25;;;;;;;3.45;2.35;;;12.40;65.50;;;;;;5035166;28;20030;-70
2021/04/15 11:07:12;;;;;;;3.75;2.10;;;12.10;64.90;;;;;;5016809;28;20034;-73
2021/04/15 11:09:41;;;;;;;4.32;2.20;;;12.40;65.80;;;;;;5031288;28;20030;-70
2021/04/15 11:12:23;;;;;;;5.90;2.47;;;12.60;63.60;;;;;;5033586;28;20040;-70
2021/04/15 11:15:36;;;;;;;3.47;1.95;;;12.70;63.20;;;;;;5033991;28;20101;-70
2021/04/15 11:18:25;;;;;;;3.22;2.25;;;12.80;62.70;;;;;;5003578;28;20073;-69
2021/04/15 11:20:53;;;;;;;3.28;1.85;;;12.30;64.00;;;;;;5016999;28;20054;-71
2021/04/15 11:23:19;;;;;;;5.32;1.83;;;12.60;60.20;;;;;;5009442;28;20120;-69
2021/04/15 11:25:50;;;;;;;4.80;1.80;;;12.30;60.90;;;;;;5012649;28;20440;-70
2021/04/15 11:28:21;;;;;;;4.63;2.20;;;12.20;59.70;;;;;;5034467;28;20040;-63
2021/04/15 11:30:56;;;;;;;6.22;1.90;;;11.80;57.90;;;;;;5029873;28;20077;-72
2021/04/15 11:33:40;;;;;;;5.38;1.92;;;11.30;58.50;;;;;;5013821;28;20096;-70
2021/04/15 11:36:18;;;;;;;4.13;2.13;;;12.10;57.80;;;;;;5014782;28;20113;-72
2021/04/15 11:38:47;;;;;;;5.40;2.20;;;11.50;59.70;;;;;;5014969;28;20368;-70
2021/04/15 11:41:25;;;;;;;4.00;2.13;;;11.50;59.70;;;;;;5029494;28;20041;-68
2021/04/15 11:44:09;;;;;;;5.97;2.58;;;11.10;60.70;;;;;;5014559;28;20030;-71
2021/04/15 11:46:51;;;;;;;5.93;2.80;;;11.30;62.40;;;;;;5014634;28;20152;-70
2021/04/15 11:49:31;;;;;;;4.80;2.30;;;11.10;65.60;;;;;;5006518;28;20032;-72
2021/04/15 11:52:06;;;;;;;7.07;3.17;;;10.70;69.70;;;;;;5032618;28;20033;-72
2021/04/15 11:54:59;;;;;;;4.68;2.90;;;10.60;73.00;;;;;;5034017;28;20038;-73
2021/04/15 11:57:43;;;;;;;5.57;3.08;;;10.50;81.30;;;;;;5034119;28;20030;-72
2021/04/15 12:00:18;;;;;;;6.38;2.95;;;10.10;78.20;;;;;;5034190;28;20116;-73
2021/04/15 12:02:54;;;;;;;7.20;2.75;;;10.30;77.90;;;;;;5029287;28;20037;-73
2021/04/15 12:05:35;;;;;;;6.28;3.05;;;10.70;74.30;;;;;;5014223;28;20439;-73
2021/04/15 12:08:26;;;;;;;7.97;3.00;;;10.40;74.20;;;;;;5014065;28;20170;-73
2021/04/15 12:11:16;;;;;;;5.00;2.10;;;10.80;76.60;;;;;;5016247;28;20070;-73
2021/04/15 12:14:00;;;;;;;3.42;1.73;;;11.60;70.00;;;;;;5011095;28;20042;-73
2021/04/15 12:17:32;;;;;;;3.58;1.60;;;12.70;67.00;;;;;;5014132;28;20470;-73
2021/04/15 12:20:18;;;;;;;6.38;2.30;;;12.60;60.60;;;;;;4982046;28;20046;-73
2021/04/15 12:23:36;;;;;;;3.95;1.63;;;13.40;62.30;;;;;;5017590;28;20033;-72
2021/04/15 12:26:14;;;;;;;12.77;2.22;;;13.40;59.80;;;;;;5033163;28;20486;-72
2021/04/15 12:29:05;;;;;;;3.15;1.50;;;12.90;57.60;;;;;;5007278;28;20101;-72
2021/04/15 12:31:51;;;;;;;2.88;1.67;;;13.40;56.60;;;;;;5037414;28;20260;-72
2021/04/15 12:34:36;;;;;;;6.15;1.73;;;12.70;57.90;;;;;;5025282;28;20046;-72
2021/04/15 12:37:14;;;;;;;5.60;2.00;;;13.40;56.30;;;;;;5026976;28;20494;-73
2021/04/15 12:40:02;;;;;;;6.20;1.85;;;13.30;54.00;;;;;;5025710;28;20490;-72
2021/04/15 12:42:36;;;;;;;3.38;1.40;;;13.20;51.80;;;;;;5013895;28;20068;-74
2021/04/15 12:45:09;;;;;;;2.22;1.23;;;13.60;52.70;;;;;;5020255;28;20121;-73
2021/04/15 12:47:41;;;;;;;2.80;1.35;;;13.80;52.70;;;;;;5029314;28;20041;-73
2021/04/15 12:50:08;;;;;;;6.65;1.58;;;14.50;51.10;;;;;;5020693;28;20029;-72
2021/04/15 12:52:36;;;;;;;4.55;1.52;;;14.00;53.20;;;;;;5016576;28;20379;-72
2021/04/15 12:55:07;;;;;;;3.72;2.00;;;14.20;61.80;;;;;;5011495;28;20546;-71
2021/04/15 12:57:34;;;;;;;3.80;1.95;;;14.90;52.00;;;;;;5018115;28;20037;-72
2021/04/15 13:00:14;;;;;;;5.75;2.53;;;15.30;53.10;;;;;;5032561;28;20474;-72
2021/04/15 13:02:39;;;;;;;4.57;2.00;;;15.70;53.40;;;;;;5031651;28;20166;-73
2021/04/15 13:05:37;;;;;;;4.78;2.00;;;14.60;51.40;;;;;;5030381;28;20116;-73
2021/04/15 13:08:33;;;;;;;5.85;1.95;;;15.30;52.60;;;;;;5029307;28;20052;-72
2021/04/15 13:11:22;;;;;;;8.45;2.03;;;15.00;52.00;;;;;;5012164;28;20050;-73
2021/04/15 13:14:13;;;;;;;4.47;2.30;;;15.70;53.10;;;;;;5007514;28;20080;-73
2021/04/15 13:16:42;;;;;;;;;;;15.40;51.50;;;;;;5013231;28;20478;-72
2021/04/15 13:19:20;;;;;;;5.38;1.63;;;16.40;50.30;;;;;;5035420;28;19940;-74
2021/04/15 13:22:07;;;;;;;3.88;2.05;;;16.40;45.90;;;;;;5032561;28;20438;-73
2021/04/15 13:25:04;;;;;;;6.45;2.08;;;14.30;48.80;;;;;;5032181;28;20041;-72
2021/04/15 13:27:35;;;;;;;7.88;2.28;;;14.50;51.10;;;;;;5032435;28;20030;-72
2021/04/15 13:30:31;;;;;;;4.57;2.15;;;14.50;53.10;;;;;;5032073;28;20561;-73
2021/04/15 13:33:15;;;;;;;4.40;2.33;;;14.60;51.90;;;;;;5032472;28;20033;-73
2021/04/15 13:35:58;;;;;;;4.55;2.40;;;15.00;50.60;;;;;;5032345;28;20131;-73
2021/04/15 13:38:34;;;;;;;7.97;2.92;;;14.90;49.70;;;;;;5032183;28;20123;-73
2021/04/15 13:41:44;;;;;;;4.90;2.15;;;14.70;51.10;;;;;;5031629;28;20490;-73
2021/04/15 13:44:31;;;;;;;8.70;2.25;;;16.40;49.00;;;;;;5014426;28;20038;-73
2021/04/15 13:46:57;;;;;;;3.25;1.70;;;17.60;47.90;;;;;;5030879;28;20406;-72
2021/04/15 13:49:38;;;;;;;15.45;3.47;;;16.60;47.20;;;;;;5026946;28;20040;-74
2021/04/15 13:52:11;;;;;;;12.15;3.47;;;16.50;49.80;;;;;;5029460;28;20040;-73
2021/04/15 13:54:44;;;;;;;9.25;2.47;;;14.30;54.10;;;;;;5032027;28;20049;-73
2021/04/15 13:57:17;;;;;;;9.93;3.13;;;13.30;58.00;;;;;;5031317;28;20088;-73
2021/04/15 13:59:51;;;;;;;11.82;5.38;;;12.20;62.60;;;;;;5043302;28;20037;-72
2021/04/15 14:02:17;;;;;;;7.18;2.45;;;11.90;64.40;;;;;;5032773;28;20040;-73
2021/04/15 14:04:50;;;;;;;4.43;2.40;;;11.70;65.30;;;;;;5031997;28;20039;-73
2021/04/15 14:07:29;;;;;;;4.50;1.98;;;11.60;64.90;;;;;;5014100;28;20120;-73
2021/04/15 14:10:10;;;;;;;8.18;2.05;;;11.80;62.60;;;;;;5030732;28;20029;-73
2021/04/15 14:12:55;;;;;;;3.30;1.70;;;13.10;59.40;;;;;;5030305;28;20042;-74
2021/04/15 14:15:24;;;;;;;4.82;2.00;;;14.00;56.90;;;;;;5044897;28;20048;-73
2021/04/15 14:18:31;;;;;;;3.92;2.10;;;14.30;54.50;;;;;;5034363;28;20094;-74
2021/04/15 14:21:17;;;;;;;4.45;1.95;;;14.60;53.40;;;;;;5010226;28;20499;-73